sensor_id;sensor_type;location;lat;lon;timestamp;P1;durP1;ratioP1;P2;durP2;ratioP2
10387;SDS011;5240;51.128;4.566;2023-07-13T00:01:45;7.70;;;2.63;;
10387;SDS011;5240;51.128;4.566;2023-07-13T00:04:15;7.03;;;2.50;;
10387;SDS011;5240;51.128;4.566;2023-07-13T00:06:42;6.95;;;2.35;;
10387;SDS011;5240;51.128;4.566;2023-07-13T00:09:10;6.75;;;2.75;;
10387;SDS011;5240;51.128;4.566;2023-07-13T00:11:39;9.20;;;3.03;;
10387;SDS011;5240;51.128;4.566;2023-07-13T00:14:07;7.65;;;2.75;;
10387;SDS011;5240;51.128;4.566;2023-07-13T00:16:34;7.88;;;2.50;;
10387;SDS011;5240;51.128;4.566;2023-07-13T00:19:02;6.45;;;2.45;;
10387;SDS011;5240;51.128;4.566;2023-07-13T00:21:29;7.18;;;2.53;;
10387;SDS011;5240;51.128;4.566;2023-07-13T00:23:56;10.35;;;2.75;;
10387;SDS011;5240;51.128;4.566;2023-07-13T00:26:23;6.68;;;2.42;;
10387;SDS011;5240;51.128;4.566;2023-07-13T00:28:52;6.47;;;2.42;;
10387;SDS011;5240;51.128;4.566;2023-07-13T00:31:19;8.60;;;2.60;;
10387;SDS011;5240;51.128;4.566;2023-07-13T00:33:46;8.88;;;2.72;;
10387;SDS011;5240;51.128;4.566;2023-07-13T00:36:13;8.35;;;2.75;;
10387;SDS011;5240;51.128;4.566;2023-07-13T00:38:40;5.90;;;2.42;;
10387;SDS011;5240;51.128;4.566;2023-07-13T00:41:07;6.00;;;2.30;;
10387;SDS011;5240;51.128;4.566;2023-07-13T00:43:34;7.13;;;2.47;;
10387;SDS011;5240;51.128;4.566;2023-07-13T00:46:19;7.22;;;2.70;;
10387;SDS011;5240;51.128;4.566;2023-07-13T00:48:49;7.55;;;2.60;;
10387;SDS011;5240;51.128;4.566;2023-07-13T00:51:19;8.13;;;2.55;;
10387;SDS011;5240;51.128;4.566;2023-07-13T00:53:50;8.02;;;2.60;;
10387;SDS011;5240;51.128;4.566;2023-07-13T00:56:19;7.57;;;2.53;;
10387;SDS011;5240;51.128;4.566;2023-07-13T00:58:46;4.85;;;2.28;;
10387;SDS011;5240;51.128;4.566;2023-07-13T01:01:13;8.55;;;2.88;;
10387;SDS011;5240;51.128;4.566;2023-07-13T01:03:42;6.40;;;2.15;;
10387;SDS011;5240;51.128;4.566;2023-07-13T01:06:09;7.90;;;2.40;;
10387;SDS011;5240;51.128;4.566;2023-07-13T01:08:37;6.05;;;2.33;;
10387;SDS011;5240;51.128;4.566;2023-07-13T01:11:05;7.57;;;2.80;;
10387;SDS011;5240;51.128;4.566;2023-07-13T01:13:33;6.95;;;2.35;;
10387;SDS011;5240;51.128;4.566;2023-07-13T01:16:01;6.70;;;2.47;;
10387;SDS011;5240;51.128;4.566;2023-07-13T01:18:38;8.00;;;2.92;;
10387;SDS011;5240;51.128;4.566;2023-07-13T01:21:07;5.30;;;2.42;;
10387;SDS011;5240;51.128;4.566;2023-07-13T01:23:34;6.88;;;2.58;;
10387;SDS011;5240;51.128;4.566;2023-07-13T01:26:01;6.97;;;2.45;;
10387;SDS011;5240;51.128;4.566;2023-07-13T01:28:28;6.47;;;2.65;;
10387;SDS011;5240;51.128;4.566;2023-07-13T01:30:56;6.22;;;2.35;;
10387;SDS011;5240;51.128;4.566;2023-07-13T01:33:25;8.45;;;3.20;;
10387;SDS011;5240;51.128;4.566;2023-07-13T01:35:52;7.15;;;2.50;;
10387;SDS011;5240;51.128;4.566;2023-07-13T01:38:21;9.30;;;2.88;;
10387;SDS011;5240;51.128;4.566;2023-07-13T01:40:49;9.77;;;2.83;;
10387;SDS011;5240;51.128;4.566;2023-07-13T01:43:17;8.88;;;2.90;;
10387;SDS011;5240;51.128;4.566;2023-07-13T01:45:44;9.25;;;2.65;;
10387;SDS011;5240;51.128;4.566;2023-07-13T01:48:12;9.13;;;3.05;;
10387;SDS011;5240;51.128;4.566;2023-07-13T01:50:39;7.68;;;2.65;;
10387;SDS011;5240;51.128;4.566;2023-07-13T01:53:06;4.93;;;2.35;;
10387;SDS011;5240;51.128;4.566;2023-07-13T01:55:35;7.32;;;2.70;;
10387;SDS011;5240;51.128;4.566;2023-07-13T01:58:02;6.70;;;2.55;;
10387;SDS011;5240;51.128;4.566;2023-07-13T02:00:30;8.25;;;2.72;;
10387;SDS011;5240;51.128;4.566;2023-07-13T02:02:57;6.97;;;2.78;;
10387;SDS011;5240;51.128;4.566;2023-07-13T02:05:25;9.20;;;3.10;;
10387;SDS011;5240;51.128;4.566;2023-07-13T02:07:52;7.78;;;2.90;;
10387;SDS011;5240;51.128;4.566;2023-07-13T02:10:19;9.02;;;3.28;;
10387;SDS011;5240;51.128;4.566;2023-07-13T02:12:47;7.90;;;2.78;;
10387;SDS011;5240;51.128;4.566;2023-07-13T02:15:14;10.70;;;3.25;;
10387;SDS011;5240;51.128;4.566;2023-07-13T02:17:41;10.55;;;3.00;;
10387;SDS011;5240;51.128;4.566;2023-07-13T02:20:10;8.32;;;2.58;;
10387;SDS011;5240;51.128;4.566;2023-07-13T02:22:37;7.65;;;2.35;;
10387;SDS011;5240;51.128;4.566;2023-07-13T02:25:04;7.55;;;2.53;;
10387;SDS011;5240;51.128;4.566;2023-07-13T02:27:32;7.10;;;2.53;;
10387;SDS011;5240;51.128;4.566;2023-07-13T02:30:00;6.28;;;2.33;;
10387;SDS011;5240;51.128;4.566;2023-07-13T02:32:28;7.05;;;2.55;;
10387;SDS011;5240;51.128;4.566;2023-07-13T02:34:55;9.65;;;2.53;;
10387;SDS011;5240;51.128;4.566;2023-07-13T02:37:22;9.98;;;2.88;;
10387;SDS011;5240;51.128;4.566;2023-07-13T02:39:49;7.30;;;2.40;;
10387;SDS011;5240;51.128;4.566;2023-07-13T02:42:16;11.73;;;3.05;;
10387;SDS011;5240;51.128;4.566;2023-07-13T02:44:43;8.52;;;2.72;;
10387;SDS011;5240;51.128;4.566;2023-07-13T02:47:11;6.05;;;2.42;;
10387;SDS011;5240;51.128;4.566;2023-07-13T02:49:39;7.72;;;2.92;;
10387;SDS011;5240;51.128;4.566;2023-07-13T02:52:06;5.70;;;2.53;;
10387;SDS011;5240;51.128;4.566;2023-07-13T02:54:33;8.05;;;2.70;;
10387;SDS011;5240;51.128;4.566;2023-07-13T02:57:00;9.93;;;3.78;;
10387;SDS011;5240;51.128;4.566;2023-07-13T02:59:27;10.48;;;3.00;;
10387;SDS011;5240;51.128;4.566;2023-07-13T03:01:54;8.13;;;2.70;;
10387;SDS011;5240;51.128;4.566;2023-07-13T03:04:22;10.32;;;2.28;;
10387;SDS011;5240;51.128;4.566;2023-07-13T03:06:49;10.18;;;2.90;;
10387;SDS011;5240;51.128;4.566;2023-07-13T03:09:16;8.57;;;2.70;;
10387;SDS011;5240;51.128;4.566;2023-07-13T03:11:43;8.77;;;2.83;;
10387;SDS011;5240;51.128;4.566;2023-07-13T03:14:10;8.50;;;2.80;;
10387;SDS011;5240;51.128;4.566;2023-07-13T03:16:37;7.70;;;2.50;;
10387;SDS011;5240;51.128;4.566;2023-07-13T03:19:04;10.00;;;2.92;;
10387;SDS011;5240;51.128;4.566;2023-07-13T03:21:33;6.38;;;2.78;;
10387;SDS011;5240;51.128;4.566;2023-07-13T03:24:00;5.82;;;2.67;;
10387;SDS011;5240;51.128;4.566;2023-07-13T03:26:27;7.82;;;2.97;;
10387;SDS011;5240;51.128;4.566;2023-07-13T03:28:54;9.85;;;3.20;;
10387;SDS011;5240;51.128;4.566;2023-07-13T03:31:23;7.47;;;3.20;;
10387;SDS011;5240;51.128;4.566;2023-07-13T03:33:52;8.10;;;2.85;;
10387;SDS011;5240;51.128;4.566;2023-07-13T03:36:19;8.05;;;3.05;;
10387;SDS011;5240;51.128;4.566;2023-07-13T03:38:51;8.13;;;3.13;;
10387;SDS011;5240;51.128;4.566;2023-07-13T03:41:20;11.27;;;2.70;;
10387;SDS011;5240;51.128;4.566;2023-07-13T03:43:48;7.82;;;3.05;;
10387;SDS011;5240;51.128;4.566;2023-07-13T03:46:16;9.07;;;2.88;;
10387;SDS011;5240;51.128;4.566;2023-07-13T03:48:44;7.55;;;2.80;;
10387;SDS011;5240;51.128;4.566;2023-07-13T03:51:12;8.82;;;2.95;;
10387;SDS011;5240;51.128;4.566;2023-07-13T03:53:42;11.95;;;3.65;;
10387;SDS011;5240;51.128;4.566;2023-07-13T03:56:11;9.52;;;3.60;;
10387;SDS011;5240;51.128;4.566;2023-07-13T03:58:40;11.82;;;3.40;;
10387;SDS011;5240;51.128;4.566;2023-07-13T04:01:09;13.70;;;3.30;;
10387;SDS011;5240;51.128;4.566;2023-07-13T04:03:37;7.93;;;3.03;;
10387;SDS011;5240;51.128;4.566;2023-07-13T04:06:05;12.45;;;3.63;;
10387;SDS011;5240;51.128;4.566;2023-07-13T04:08:34;13.10;;;3.30;;
10387;SDS011;5240;51.128;4.566;2023-07-13T04:11:03;13.95;;;4.00;;
10387;SDS011;5240;51.128;4.566;2023-07-13T04:13:32;12.65;;;3.50;;
10387;SDS011;5240;51.128;4.566;2023-07-13T04:15:59;9.48;;;3.10;;
10387;SDS011;5240;51.128;4.566;2023-07-13T04:18:26;14.82;;;3.92;;
10387;SDS011;5240;51.128;4.566;2023-07-13T04:20:53;14.57;;;3.67;;
10387;SDS011;5240;51.128;4.566;2023-07-13T04:23:20;9.93;;;3.70;;
10387;SDS011;5240;51.128;4.566;2023-07-13T04:25:47;10.07;;;3.85;;
10387;SDS011;5240;51.128;4.566;2023-07-13T04:28:17;10.88;;;4.13;;
10387;SDS011;5240;51.128;4.566;2023-07-13T04:30:46;11.90;;;4.00;;
10387;SDS011;5240;51.128;4.566;2023-07-13T04:33:13;9.38;;;3.38;;
10387;SDS011;5240;51.128;4.566;2023-07-13T04:35:42;9.60;;;3.70;;
10387;SDS011;5240;51.128;4.566;2023-07-13T04:38:09;7.10;;;3.22;;
10387;SDS011;5240;51.128;4.566;2023-07-13T04:40:37;10.98;;;3.15;;
10387;SDS011;5240;51.128;4.566;2023-07-13T04:43:04;11.38;;;3.70;;
10387;SDS011;5240;51.128;4.566;2023-07-13T04:45:33;12.30;;;3.80;;
10387;SDS011;5240;51.128;4.566;2023-07-13T04:48:03;10.90;;;3.42;;
10387;SDS011;5240;51.128;4.566;2023-07-13T04:50:30;10.18;;;3.20;;
10387;SDS011;5240;51.128;4.566;2023-07-13T04:52:57;10.65;;;3.47;;
10387;SDS011;5240;51.128;4.566;2023-07-13T04:55:24;9.43;;;3.42;;
10387;SDS011;5240;51.128;4.566;2023-07-13T04:57:55;13.57;;;4.20;;
10387;SDS011;5240;51.128;4.566;2023-07-13T05:00:24;10.23;;;3.40;;
10387;SDS011;5240;51.128;4.566;2023-07-13T05:02:51;11.23;;;3.55;;
10387;SDS011;5240;51.128;4.566;2023-07-13T05:05:19;10.18;;;3.40;;
10387;SDS011;5240;51.128;4.566;2023-07-13T05:07:46;11.80;;;3.60;;
10387;SDS011;5240;51.128;4.566;2023-07-13T05:10:13;11.73;;;3.65;;
10387;SDS011;5240;51.128;4.566;2023-07-13T05:12:40;12.50;;;3.88;;
10387;SDS011;5240;51.128;4.566;2023-07-13T05:15:07;13.35;;;4.10;;
10387;SDS011;5240;51.128;4.566;2023-07-13T05:17:34;13.02;;;3.83;;
10387;SDS011;5240;51.128;4.566;2023-07-13T05:20:04;10.52;;;3.38;;
10387;SDS011;5240;51.128;4.566;2023-07-13T05:22:33;12.50;;;3.85;;
10387;SDS011;5240;51.128;4.566;2023-07-13T05:25:00;10.25;;;3.80;;
10387;SDS011;5240;51.128;4.566;2023-07-13T05:27:28;12.77;;;3.42;;
10387;SDS011;5240;51.128;4.566;2023-07-13T05:29:55;13.00;;;4.10;;
10387;SDS011;5240;51.128;4.566;2023-07-13T05:32:22;10.10;;;3.85;;
10387;SDS011;5240;51.128;4.566;2023-07-13T05:34:49;10.85;;;3.65;;
10387;SDS011;5240;51.128;4.566;2023-07-13T05:37:17;10.05;;;3.63;;
10387;SDS011;5240;51.128;4.566;2023-07-13T05:39:46;15.02;;;3.58;;
10387;SDS011;5240;51.128;4.566;2023-07-13T05:42:13;14.52;;;3.22;;
10387;SDS011;5240;51.128;4.566;2023-07-13T05:44:40;15.10;;;3.60;;
10387;SDS011;5240;51.128;4.566;2023-07-13T05:47:07;7.72;;;3.47;;
10387;SDS011;5240;51.128;4.566;2023-07-13T05:49:34;11.23;;;3.75;;
10387;SDS011;5240;51.128;4.566;2023-07-13T05:52:01;11.10;;;3.88;;
10387;SDS011;5240;51.128;4.566;2023-07-13T05:54:28;10.65;;;3.65;;
10387;SDS011;5240;51.128;4.566;2023-07-13T05:56:56;13.40;;;4.13;;
10387;SDS011;5240;51.128;4.566;2023-07-13T05:59:23;11.27;;;3.45;;
10387;SDS011;5240;51.128;4.566;2023-07-13T06:01:51;10.73;;;3.97;;
10387;SDS011;5240;51.128;4.566;2023-07-13T06:04:18;11.75;;;3.97;;
10387;SDS011;5240;51.128;4.566;2023-07-13T06:06:45;11.00;;;3.65;;
10387;SDS011;5240;51.128;4.566;2023-07-13T06:09:12;11.32;;;3.70;;
10387;SDS011;5240;51.128;4.566;2023-07-13T06:11:39;15.60;;;3.85;;
10387;SDS011;5240;51.128;4.566;2023-07-13T06:14:08;12.98;;;4.00;;
10387;SDS011;5240;51.128;4.566;2023-07-13T06:16:36;13.55;;;3.85;;
10387;SDS011;5240;51.128;4.566;2023-07-13T06:19:03;11.45;;;3.25;;
10387;SDS011;5240;51.128;4.566;2023-07-13T06:21:30;13.55;;;3.95;;
10387;SDS011;5240;51.128;4.566;2023-07-13T06:23:57;17.50;;;4.28;;
10387;SDS011;5240;51.128;4.566;2023-07-13T06:26:24;11.75;;;3.45;;
10387;SDS011;5240;51.128;4.566;2023-07-13T06:28:51;14.60;;;4.25;;
10387;SDS011;5240;51.128;4.566;2023-07-13T06:31:20;10.10;;;3.78;;
10387;SDS011;5240;51.128;4.566;2023-07-13T06:33:47;13.30;;;3.45;;
10387;SDS011;5240;51.128;4.566;2023-07-13T06:36:14;15.73;;;4.13;;
10387;SDS011;5240;51.128;4.566;2023-07-13T06:38:41;13.23;;;4.22;;
10387;SDS011;5240;51.128;4.566;2023-07-13T06:41:08;13.15;;;3.78;;
10387;SDS011;5240;51.128;4.566;2023-07-13T06:43:35;12.13;;;3.80;;
10387;SDS011;5240;51.128;4.566;2023-07-13T06:46:02;14.68;;;4.35;;
10387;SDS011;5240;51.128;4.566;2023-07-13T06:48:30;12.00;;;3.75;;
10387;SDS011;5240;51.128;4.566;2023-07-13T06:50:57;14.02;;;4.40;;
10387;SDS011;5240;51.128;4.566;2023-07-13T06:53:24;12.93;;;4.05;;
10387;SDS011;5240;51.128;4.566;2023-07-13T06:55:52;11.73;;;4.32;;
10387;SDS011;5240;51.128;4.566;2023-07-13T06:58:19;10.88;;;3.83;;
10387;SDS011;5240;51.128;4.566;2023-07-13T07:00:46;8.77;;;3.50;;
10387;SDS011;5240;51.128;4.566;2023-07-13T07:03:17;11.70;;;4.03;;
10387;SDS011;5240;51.128;4.566;2023-07-13T07:05:45;15.32;;;4.47;;
10387;SDS011;5240;51.128;4.566;2023-07-13T07:08:12;12.50;;;3.83;;
10387;SDS011;5240;51.128;4.566;2023-07-13T07:10:40;15.93;;;4.25;;
10387;SDS011;5240;51.128;4.566;2023-07-13T07:13:07;15.15;;;3.97;;
10387;SDS011;5240;51.128;4.566;2023-07-13T07:15:34;14.65;;;4.30;;
10387;SDS011;5240;51.128;4.566;2023-07-13T07:18:02;11.38;;;3.60;;
10387;SDS011;5240;51.128;4.566;2023-07-13T07:20:29;12.75;;;3.85;;
10387;SDS011;5240;51.128;4.566;2023-07-13T07:22:59;13.68;;;4.28;;
10387;SDS011;5240;51.128;4.566;2023-07-13T07:25:26;14.80;;;4.43;;
10387;SDS011;5240;51.128;4.566;2023-07-13T07:27:56;14.55;;;4.35;;
10387;SDS011;5240;51.128;4.566;2023-07-13T07:30:23;14.52;;;5.47;;
10387;SDS011;5240;51.128;4.566;2023-07-13T07:32:51;12.68;;;5.07;;
10387;SDS011;5240;51.128;4.566;2023-07-13T07:35:18;13.75;;;4.85;;
10387;SDS011;5240;51.128;4.566;2023-07-13T07:37:45;16.45;;;4.30;;
10387;SDS011;5240;51.128;4.566;2023-07-13T07:40:13;12.82;;;4.00;;
10387;SDS011;5240;51.128;4.566;2023-07-13T07:42:40;9.32;;;3.85;;
10387;SDS011;5240;51.128;4.566;2023-07-13T07:45:08;13.73;;;4.22;;
10387;SDS011;5240;51.128;4.566;2023-07-13T07:47:36;16.15;;;3.88;;
10387;SDS011;5240;51.128;4.566;2023-07-13T07:50:03;13.63;;;3.92;;
10387;SDS011;5240;51.128;4.566;2023-07-13T07:52:31;13.70;;;4.20;;
10387;SDS011;5240;51.128;4.566;2023-07-13T07:54:58;12.68;;;4.10;;
10387;SDS011;5240;51.128;4.566;2023-07-13T07:57:27;11.73;;;3.80;;
10387;SDS011;5240;51.128;4.566;2023-07-13T07:59:54;12.68;;;3.90;;
10387;SDS011;5240;51.128;4.566;2023-07-13T08:02:21;14.73;;;4.30;;
10387;SDS011;5240;51.128;4.566;2023-07-13T08:04:48;10.00;;;3.60;;
10387;SDS011;5240;51.128;4.566;2023-07-13T08:07:15;10.57;;;4.38;;
10387;SDS011;5240;51.128;4.566;2023-07-13T08:09:42;12.93;;;4.07;;
10387;SDS011;5240;51.128;4.566;2023-07-13T08:12:09;12.10;;;4.03;;
10387;SDS011;5240;51.128;4.566;2023-07-13T08:14:37;9.90;;;3.75;;
10387;SDS011;5240;51.128;4.566;2023-07-13T08:17:04;15.45;;;3.80;;
10387;SDS011;5240;51.128;4.566;2023-07-13T08:19:31;12.23;;;4.30;;
10387;SDS011;5240;51.128;4.566;2023-07-13T08:21:58;9.43;;;3.97;;
10387;SDS011;5240;51.128;4.566;2023-07-13T08:24:25;9.00;;;3.67;;
10387;SDS011;5240;51.128;4.566;2023-07-13T08:26:52;9.68;;;4.15;;
10387;SDS011;5240;51.128;4.566;2023-07-13T08:29:20;11.75;;;3.50;;
10387;SDS011;5240;51.128;4.566;2023-07-13T08:31:48;10.48;;;3.42;;
10387;SDS011;5240;51.128;4.566;2023-07-13T08:34:15;11.20;;;3.85;;
10387;SDS011;5240;51.128;4.566;2023-07-13T08:36:42;9.65;;;3.63;;
10387;SDS011;5240;51.128;4.566;2023-07-13T08:39:09;12.82;;;3.67;;
10387;SDS011;5240;51.128;4.566;2023-07-13T08:41:37;7.90;;;3.30;;
10387;SDS011;5240;51.128;4.566;2023-07-13T08:44:04;7.53;;;3.10;;
10387;SDS011;5240;51.128;4.566;2023-07-13T08:46:37;7.82;;;3.00;;
10387;SDS011;5240;51.128;4.566;2023-07-13T08:49:10;8.07;;;3.47;;
10387;SDS011;5240;51.128;4.566;2023-07-13T08:51:41;14.10;;;3.53;;
10387;SDS011;5240;51.128;4.566;2023-07-13T08:54:12;7.72;;;3.00;;
10387;SDS011;5240;51.128;4.566;2023-07-13T08:56:47;9.75;;;4.03;;
10387;SDS011;5240;51.128;4.566;2023-07-13T08:59:18;9.10;;;2.80;;
10387;SDS011;5240;51.128;4.566;2023-07-13T09:01:52;6.55;;;3.03;;
10387;SDS011;5240;51.128;4.566;2023-07-13T09:04:29;8.73;;;3.30;;
10387;SDS011;5240;51.128;4.566;2023-07-13T09:07:02;8.70;;;3.08;;
10387;SDS011;5240;51.128;4.566;2023-07-13T09:09:40;10.02;;;3.40;;
10387;SDS011;5240;51.128;4.566;2023-07-13T09:12:17;11.45;;;3.10;;
10387;SDS011;5240;51.128;4.566;2023-07-13T09:14:51;6.72;;;2.72;;
10387;SDS011;5240;51.128;4.566;2023-07-13T09:17:23;8.20;;;3.40;;
10387;SDS011;5240;51.128;4.566;2023-07-13T09:19:56;11.48;;;3.80;;
10387;SDS011;5240;51.128;4.566;2023-07-13T09:22:25;7.90;;;3.45;;
10387;SDS011;5240;51.128;4.566;2023-07-13T09:24:57;8.52;;;3.10;;
10387;SDS011;5240;51.128;4.566;2023-07-13T09:27:30;10.52;;;2.85;;
10387;SDS011;5240;51.128;4.566;2023-07-13T09:30:10;7.38;;;2.85;;
10387;SDS011;5240;51.128;4.566;2023-07-13T09:32:50;10.90;;;3.10;;
10387;SDS011;5240;51.128;4.566;2023-07-13T09:35:21;10.90;;;3.22;;
10387;SDS011;5240;51.128;4.566;2023-07-13T09:37:50;11.48;;;3.08;;
10387;SDS011;5240;51.128;4.566;2023-07-13T09:40:21;9.82;;;2.88;;
10387;SDS011;5240;51.128;4.566;2023-07-13T09:42:51;7.55;;;2.80;;
10387;SDS011;5240;51.128;4.566;2023-07-13T09:45:26;11.73;;;3.53;;
10387;SDS011;5240;51.128;4.566;2023-07-13T09:47:59;9.23;;;3.20;;
10387;SDS011;5240;51.128;4.566;2023-07-13T09:50:30;7.22;;;2.60;;
10387;SDS011;5240;51.128;4.566;2023-07-13T09:52:57;6.28;;;2.92;;
10387;SDS011;5240;51.128;4.566;2023-07-13T09:55:28;8.07;;;3.08;;
10387;SDS011;5240;51.128;4.566;2023-07-13T09:57:57;9.10;;;2.80;;
10387;SDS011;5240;51.128;4.566;2023-07-13T10:00:30;5.35;;;2.30;;
10387;SDS011;5240;51.128;4.566;2023-07-13T10:02:58;6.68;;;2.70;;
10387;SDS011;5240;51.128;4.566;2023-07-13T10:05:38;6.63;;;2.45;;
10387;SDS011;5240;51.128;4.566;2023-07-13T10:08:14;5.63;;;2.58;;
10387;SDS011;5240;51.128;4.566;2023-07-13T10:10:43;8.60;;;2.72;;
10387;SDS011;5240;51.128;4.566;2023-07-13T10:13:21;7.22;;;2.95;;
10387;SDS011;5240;51.128;4.566;2023-07-13T10:15:52;5.72;;;2.47;;
10387;SDS011;5240;51.128;4.566;2023-07-13T10:18:20;6.80;;;2.50;;
10387;SDS011;5240;51.128;4.566;2023-07-13T10:20:49;9.25;;;2.95;;
10387;SDS011;5240;51.128;4.566;2023-07-13T10:23:21;6.78;;;2.55;;
10387;SDS011;5240;51.128;4.566;2023-07-13T10:25:53;7.97;;;2.88;;
10387;SDS011;5240;51.128;4.566;2023-07-13T10:28:25;6.43;;;2.47;;
10387;SDS011;5240;51.128;4.566;2023-07-13T10:30:56;7.85;;;2.78;;
10387;SDS011;5240;51.128;4.566;2023-07-13T10:33:28;6.55;;;2.88;;
10387;SDS011;5240;51.128;4.566;2023-07-13T10:35:59;5.78;;;2.50;;
10387;SDS011;5240;51.128;4.566;2023-07-13T10:38:32;4.38;;;2.45;;
10387;SDS011;5240;51.128;4.566;2023-07-13T10:41:01;5.13;;;2.50;;
10387;SDS011;5240;51.128;4.566;2023-07-13T10:43:32;5.97;;;2.63;;
10387;SDS011;5240;51.128;4.566;2023-07-13T10:46:03;6.05;;;2.45;;
10387;SDS011;5240;51.128;4.566;2023-07-13T10:48:32;5.03;;;2.55;;
10387;SDS011;5240;51.128;4.566;2023-07-13T10:51:03;7.15;;;2.53;;
10387;SDS011;5240;51.128;4.566;2023-07-13T10:53:33;5.90;;;2.42;;
10387;SDS011;5240;51.128;4.566;2023-07-13T10:56:01;5.78;;;2.75;;
10387;SDS011;5240;51.128;4.566;2023-07-13T10:58:34;4.90;;;2.30;;
10387;SDS011;5240;51.128;4.566;2023-07-13T11:01:07;8.10;;;2.80;;
10387;SDS011;5240;51.128;4.566;2023-07-13T11:03:36;6.68;;;2.50;;
10387;SDS011;5240;51.128;4.566;2023-07-13T11:06:15;5.78;;;2.55;;
10387;SDS011;5240;51.128;4.566;2023-07-13T11:08:55;5.43;;;2.53;;
10387;SDS011;5240;51.128;4.566;2023-07-13T11:11:32;6.43;;;2.53;;
10387;SDS011;5240;51.128;4.566;2023-07-13T11:14:04;8.27;;;2.55;;
10387;SDS011;5240;51.128;4.566;2023-07-13T11:16:51;4.78;;;2.22;;
10387;SDS011;5240;51.128;4.566;2023-07-13T11:19:28;6.63;;;2.33;;
10387;SDS011;5240;51.128;4.566;2023-07-13T11:22:21;8.60;;;2.67;;
10387;SDS011;5240;51.128;4.566;2023-07-13T11:28:04;5.72;;;2.13;;
10387;SDS011;5240;51.128;4.566;2023-07-13T11:30:43;5.25;;;2.22;;
10387;SDS011;5240;51.128;4.566;2023-07-13T11:33:14;2.80;;;1.90;;
10387;SDS011;5240;51.128;4.566;2023-07-13T11:35:46;4.95;;;2.20;;
10387;SDS011;5240;51.128;4.566;2023-07-13T11:38:20;5.97;;;2.42;;
10387;SDS011;5240;51.128;4.566;2023-07-13T11:40:50;6.13;;;2.35;;
10387;SDS011;5240;51.128;4.566;2023-07-13T11:43:20;7.40;;;2.55;;
10387;SDS011;5240;51.128;4.566;2023-07-13T11:45:49;3.83;;;2.15;;
10387;SDS011;5240;51.128;4.566;2023-07-13T11:48:18;4.05;;;2.38;;
10387;SDS011;5240;51.128;4.566;2023-07-13T11:50:51;7.57;;;2.75;;
10387;SDS011;5240;51.128;4.566;2023-07-13T11:53:25;6.07;;;2.50;;
10387;SDS011;5240;51.128;4.566;2023-07-13T11:55:53;9.23;;;2.80;;
10387;SDS011;5240;51.128;4.566;2023-07-13T11:58:23;5.93;;;2.50;;
10387;SDS011;5240;51.128;4.566;2023-07-13T12:00:53;6.00;;;2.90;;
10387;SDS011;5240;51.128;4.566;2023-07-13T12:03:24;7.97;;;3.38;;
10387;SDS011;5240;51.128;4.566;2023-07-13T12:05:55;10.82;;;3.60;;
10387;SDS011;5240;51.128;4.566;2023-07-13T12:08:26;8.93;;;3.83;;
10387;SDS011;5240;51.128;4.566;2023-07-13T12:10:56;6.90;;;3.95;;
10387;SDS011;5240;51.128;4.566;2023-07-13T12:13:26;8.02;;;4.25;;
10387;SDS011;5240;51.128;4.566;2023-07-13T12:15:55;6.13;;;4.05;;
10387;SDS011;5240;51.128;4.566;2023-07-13T12:18:23;7.47;;;4.45;;
10387;SDS011;5240;51.128;4.566;2023-07-13T12:20:57;10.13;;;4.90;;
10387;SDS011;5240;51.128;4.566;2023-07-13T12:23:28;6.63;;;4.22;;
10387;SDS011;5240;51.128;4.566;2023-07-13T12:25:56;6.50;;;4.20;;
10387;SDS011;5240;51.128;4.566;2023-07-13T12:28:30;8.13;;;4.57;;
10387;SDS011;5240;51.128;4.566;2023-07-13T12:30:59;8.20;;;4.85;;
10387;SDS011;5240;51.128;4.566;2023-07-13T12:33:28;7.47;;;5.00;;
10387;SDS011;5240;51.128;4.566;2023-07-13T12:35:57;9.70;;;4.97;;
10387;SDS011;5240;51.128;4.566;2023-07-13T12:38:29;9.15;;;5.28;;
10387;SDS011;5240;51.128;4.566;2023-07-13T12:40:57;8.13;;;5.20;;
10387;SDS011;5240;51.128;4.566;2023-07-13T12:43:25;6.50;;;5.50;;
10387;SDS011;5240;51.128;4.566;2023-07-13T12:45:56;9.18;;;5.50;;
10387;SDS011;5240;51.128;4.566;2023-07-13T12:48:25;6.38;;;5.18;;
10387;SDS011;5240;51.128;4.566;2023-07-13T12:50:54;8.10;;;5.40;;
10387;SDS011;5240;51.128;4.566;2023-07-13T12:53:22;9.43;;;5.88;;
10387;SDS011;5240;51.128;4.566;2023-07-13T12:55:57;10.88;;;5.68;;
10387;SDS011;5240;51.128;4.566;2023-07-13T12:58:28;6.70;;;5.15;;
10387;SDS011;5240;51.128;4.566;2023-07-13T13:00:59;11.02;;;4.63;;
10387;SDS011;5240;51.128;4.566;2023-07-13T13:03:29;9.65;;;4.20;;
10387;SDS011;5240;51.128;4.566;2023-07-13T13:05:59;7.50;;;3.70;;
10387;SDS011;5240;51.128;4.566;2023-07-13T13:08:28;4.93;;;3.55;;
10387;SDS011;5240;51.128;4.566;2023-07-13T13:10:55;5.45;;;3.40;;
10387;SDS011;5240;51.128;4.566;2023-07-13T13:13:24;7.10;;;3.55;;
10387;SDS011;5240;51.128;4.566;2023-07-13T13:15:51;6.35;;;3.25;;
10387;SDS011;5240;51.128;4.566;2023-07-13T13:18:19;4.03;;;3.08;;
10387;SDS011;5240;51.128;4.566;2023-07-13T13:20:48;5.10;;;3.10;;
10387;SDS011;5240;51.128;4.566;2023-07-13T13:23:16;5.45;;;3.55;;
10387;SDS011;5240;51.128;4.566;2023-07-13T13:25:47;6.15;;;3.17;;
10387;SDS011;5240;51.128;4.566;2023-07-13T13:28:17;5.22;;;3.25;;
10387;SDS011;5240;51.128;4.566;2023-07-13T13:30:47;5.97;;;3.13;;
10387;SDS011;5240;51.128;4.566;2023-07-13T13:33:16;5.10;;;2.80;;
10387;SDS011;5240;51.128;4.566;2023-07-13T13:35:45;3.50;;;2.42;;
10387;SDS011;5240;51.128;4.566;2023-07-13T13:38:13;5.32;;;2.80;;
10387;SDS011;5240;51.128;4.566;2023-07-13T13:40:41;7.10;;;3.03;;
10387;SDS011;5240;51.128;4.566;2023-07-13T13:43:13;4.78;;;2.33;;
10387;SDS011;5240;51.128;4.566;2023-07-13T13:45:43;6.93;;;2.60;;
10387;SDS011;5240;51.128;4.566;2023-07-13T13:48:15;4.53;;;2.30;;
10387;SDS011;5240;51.128;4.566;2023-07-13T13:50:44;3.40;;;2.15;;
10387;SDS011;5240;51.128;4.566;2023-07-13T13:53:11;3.17;;;2.30;;
10387;SDS011;5240;51.128;4.566;2023-07-13T13:55:39;4.65;;;2.45;;
10387;SDS011;5240;51.128;4.566;2023-07-13T13:58:07;5.55;;;2.58;;
10387;SDS011;5240;51.128;4.566;2023-07-13T14:00:35;3.75;;;2.08;;
10387;SDS011;5240;51.128;4.566;2023-07-13T14:03:05;3.95;;;2.00;;
10387;SDS011;5240;51.128;4.566;2023-07-13T14:05:40;6.43;;;2.53;;
10387;SDS011;5240;51.128;4.566;2023-07-13T14:08:08;5.25;;;2.40;;
10387;SDS011;5240;51.128;4.566;2023-07-13T14:10:39;5.07;;;2.30;;
10387;SDS011;5240;51.128;4.566;2023-07-13T14:13:07;4.43;;;2.00;;
10387;SDS011;5240;51.128;4.566;2023-07-13T14:15:43;4.53;;;2.22;;
10387;SDS011;5240;51.128;4.566;2023-07-13T14:18:12;2.88;;;2.15;;
10387;SDS011;5240;51.128;4.566;2023-07-13T14:20:43;5.40;;;2.28;;
10387;SDS011;5240;51.128;4.566;2023-07-13T14:23:10;4.03;;;1.95;;
10387;SDS011;5240;51.128;4.566;2023-07-13T14:25:38;4.25;;;2.22;;
10387;SDS011;5240;51.128;4.566;2023-07-13T14:28:10;2.63;;;2.03;;
10387;SDS011;5240;51.128;4.566;2023-07-13T14:30:45;4.15;;;2.25;;
10387;SDS011;5240;51.128;4.566;2023-07-13T14:33:13;8.05;;;2.30;;
10387;SDS011;5240;51.128;4.566;2023-07-13T14:35:40;6.18;;;2.70;;
10387;SDS011;5240;51.128;4.566;2023-07-13T14:38:08;3.35;;;1.90;;
10387;SDS011;5240;51.128;4.566;2023-07-13T14:40:39;3.45;;;2.28;;
10387;SDS011;5240;51.128;4.566;2023-07-13T14:43:08;2.45;;;2.00;;
10387;SDS011;5240;51.128;4.566;2023-07-13T14:45:38;3.15;;;1.98;;
10387;SDS011;5240;51.128;4.566;2023-07-13T14:48:13;4.15;;;2.45;;
10387;SDS011;5240;51.128;4.566;2023-07-13T14:50:42;4.30;;;2.17;;
10387;SDS011;5240;51.128;4.566;2023-07-13T14:53:10;3.20;;;2.10;;
10387;SDS011;5240;51.128;4.566;2023-07-13T14:55:38;6.32;;;2.45;;
10387;SDS011;5240;51.128;4.566;2023-07-13T14:58:05;4.80;;;2.38;;
10387;SDS011;5240;51.128;4.566;2023-07-13T15:00:32;3.85;;;2.20;;
10387;SDS011;5240;51.128;4.566;2023-07-13T15:03:00;4.57;;;2.38;;
10387;SDS011;5240;51.128;4.566;2023-07-13T15:05:30;3.45;;;2.00;;
10387;SDS011;5240;51.128;4.566;2023-07-13T15:08:00;3.05;;;1.90;;
10387;SDS011;5240;51.128;4.566;2023-07-13T15:10:28;5.53;;;2.42;;
10387;SDS011;5240;51.128;4.566;2023-07-13T15:12:58;4.43;;;2.28;;